Time;durP1;ratioP1;P1;durP2;ratioP2;P2;SDS_P1;SDS_P2;PMS_P1;PMS_P2;Temp;Humidity;BMP_temperature;BMP_pressure;BME280_temperature;BME280_humidity;BME280_pressure;Samples;Min_cycle;Max_cycle;Signal;HPM_P1;HPM_P2
2023/07/23 00:01:15;;;;;;;5.38;4.88;;;;;;;;;;4932115;28;100298;-78
2023/07/23 00:03:41;;;;;;;7.30;5.13;;;;;;;;;;4931796;28;98230;-78
2023/07/23 00:06:08;;;;;;;7.03;5.40;;;;;;;;;;4930975;28;98097;-77
2023/07/23 00:08:34;;;;;;;4.45;4.03;;;;;;;;;;4929253;28;99731;-77
2023/07/23 00:11:01;;;;;;;5.68;4.95;;;;;;;;;;4930591;28;98312;-78
2023/07/23 00:13:27;;;;;;;10.50;5.40;;;;;;;;;;4930425;28;99579;-77
2023/07/23 00:16:00;;;;;;;5.65;4.95;;;;;;;;;;4930228;28;98938;-77
2023/07/23 00:18:26;;;;;;;5.90;5.13;;;;;;;;;;4934488;28;98246;-76
2023/07/23 00:20:53;;;;;;;7.53;4.75;;;;;;;;;;4930839;28;97998;-76
2023/07/23 00:23:19;;;;;;;5.65;5.22;;;;;;;;;;4928444;28;98306;-77
2023/07/23 00:25:45;;;;;;;7.50;5.57;;;;;;;;;;4931109;28;98678;-77
2023/07/23 00:28:12;;;;;;;8.85;6.00;;;;;;;;;;4930431;28;100075;-77
2023/07/23 00:30:38;;;;;;;6.57;5.75;;;;;;;;;;4930314;28;98204;-77
2023/07/23 00:33:05;;;;;;;9.82;5.57;;;;;;;;;;4931121;28;98422;-77
2023/07/23 00:35:31;;;;;;;9.73;5.65;;;;;;;;;;4929142;28;98439;-77
2023/07/23 00:37:58;;;;;;;11.30;6.18;;;;;;;;;;4930512;28;98159;-76
2023/07/23 00:40:25;;;;;;;7.00;5.60;;;;;;;;;;4933683;28;99358;-76
2023/07/23 00:42:51;;;;;;;7.25;6.55;;;;;;;;;;4929947;28;98387;-75
2023/07/23 00:45:19;;;;;;;10.50;6.60;;;;;;;;;;4930530;28;98296;-75
2023/07/23 00:47:46;;;;;;;6.68;5.90;;;;;;;;;;4929802;28;98754;-76
2023/07/23 00:50:14;;;;;;;7.97;6.68;;;;;;;;;;4928156;28;98279;-76
2023/07/23 00:52:41;;;;;;;7.05;6.35;;;;;;;;;;4931220;28;99505;-75
2023/07/23 00:55:08;;;;;;;6.97;6.30;;;;;;;;;;4928800;28;101524;-76
2023/07/23 00:57:34;;;;;;;13.07;7.03;;;;;;;;;;4928277;28;98291;-75
2023/07/23 01:00:01;;;;;;;12.57;6.43;;;;;;;;;;4929315;28;98684;-76
2023/07/23 01:02:27;;;;;;;10.32;7.22;;;;;;;;;;4933115;28;99900;-76
2023/07/23 01:04:55;;;;;;;12.25;6.93;;;;;;;;;;4927756;28;98273;-76
2023/07/23 01:07:22;;;;;;;9.98;6.88;;;;;;;;;;4924245;28;99228;-77
2023/07/23 01:09:49;;;;;;;10.52;6.65;;;;;;;;;;4929577;28;98645;-77
2023/07/23 01:12:17;;;;;;;12.77;7.28;;;;;;;;;;4928816;28;98348;-75
2023/07/23 01:14:44;;;;;;;8.98;6.13;;;;;;;;;;4930999;28;102019;-77
2023/07/23 01:17:11;;;;;;;9.63;6.70;;;;;;;;;;4933870;28;98392;-78
2023/07/23 01:19:37;;;;;;;13.15;7.10;;;;;;;;;;4931676;28;100270;-77
2023/07/23 01:22:07;;;;;;;8.10;7.30;;;;;;;;;;4931965;28;102174;-76
2023/07/23 01:24:35;;;;;;;11.68;7.00;;;;;;;;;;4936853;28;98171;-77
2023/07/23 01:27:02;;;;;;;9.30;6.55;;;;;;;;;;4932999;28;100395;-76
2023/07/23 01:29:29;;;;;;;10.65;7.00;;;;;;;;;;4933346;28;98264;-76
2023/07/23 01:31:55;;;;;;;8.52;6.63;;;;;;;;;;4933003;28;98320;-76
2023/07/23 01:34:23;;;;;;;12.27;7.00;;;;;;;;;;4931997;28;101025;-79
2023/07/23 01:36:51;;;;;;;7.57;6.88;;;;;;;;;;4932836;28;98167;-78
2023/07/23 01:39:18;;;;;;;8.75;7.25;;;;;;;;;;4930311;28;98937;-76
2023/07/23 01:41:44;;;;;;;9.57;7.57;;;;;;;;;;4932820;28;99203;-76
2023/07/23 01:44:11;;;;;;;11.43;7.60;;;;;;;;;;4932471;28;98350;-77
2023/07/23 01:46:37;;;;;;;12.50;7.00;;;;;;;;;;4935927;28;98391;-77
2023/07/23 01:49:04;;;;;;;14.80;7.50;;;;;;;;;;4933279;28;98277;-77
2023/07/23 01:51:31;;;;;;;9.95;7.13;;;;;;;;;;4931396;28;100190;-76
2023/07/23 01:53:58;;;;;;;7.38;6.53;;;;;;;;;;4932640;28;98789;-77
2023/07/23 01:56:25;;;;;;;13.43;7.07;;;;;;;;;;4932485;28;98257;-77
2023/07/23 01:58:51;;;;;;;9.45;7.28;;;;;;;;;;4931866;28;99894;-77
2023/07/23 02:01:18;;;;;;;11.68;7.35;;;;;;;;;;4930361;28;101502;-76
2023/07/23 02:03:44;;;;;;;16.90;8.27;;;;;;;;;;4932794;28;98230;-77
2023/07/23 02:06:11;;;;;;;11.40;7.57;;;;;;;;;;4947909;28;99602;-77
2023/07/23 02:08:37;;;;;;;7.63;6.82;;;;;;;;;;4933689;28;99048;-77
2023/07/23 02:11:06;;;;;;;10.60;7.32;;;;;;;;;;4930643;28;101434;-76
2023/07/23 02:13:32;;;;;;;7.85;6.78;;;;;;;;;;4931598;28;99069;-76
2023/07/23 02:15:58;;;;;;;13.00;7.32;;;;;;;;;;4931120;28;97987;-77
2023/07/23 02:18:25;;;;;;;10.32;7.75;;;;;;;;;;4930929;28;100589;-79
2023/07/23 02:20:51;;;;;;;8.00;7.20;;;;;;;;;;4914275;28;102212;-78
2023/07/23 02:23:19;;;;;;;10.98;7.10;;;;;;;;;;4930913;28;98660;-78
2023/07/23 02:25:49;;;;;;;17.38;7.10;;;;;;;;;;4929128;28;99426;-79
2023/07/23 02:28:16;;;;;;;9.45;7.03;;;;;;;;;;4932574;28;101347;-78
2023/07/23 02:30:42;;;;;;;7.57;6.85;;;;;;;;;;4931611;28;98385;-78
2023/07/23 02:33:09;;;;;;;14.05;8.07;;;;;;;;;;4929949;28;101805;-78
2023/07/23 02:35:36;;;;;;;20.50;7.55;;;;;;;;;;4931039;28;98234;-76
2023/07/23 02:38:03;;;;;;;10.18;7.68;;;;;;;;;;4929900;28;98038;-79
2023/07/23 02:40:33;;;;;;;9.20;7.22;;;;;;;;;;4930770;28;98945;-77
2023/07/23 02:43:00;;;;;;;13.68;7.43;;;;;;;;;;4929514;28;98269;-79
2023/07/23 02:45:28;;;;;;;10.95;7.43;;;;;;;;;;4930941;28;98365;-77
2023/07/23 02:47:54;;;;;;;9.40;7.30;;;;;;;;;;4929779;28;102363;-77
2023/07/23 02:50:21;;;;;;;10.02;7.70;;;;;;;;;;4932550;28;98891;-79
2023/07/23 02:52:47;;;;;;;11.73;7.40;;;;;;;;;;4937849;28;99109;-77
2023/07/23 02:55:17;;;;;;;8.55;7.28;;;;;;;;;;4929468;28;98327;-77
2023/07/23 02:57:43;;;;;;;13.07;8.02;;;;;;;;;;4930478;28;99380;-77
2023/07/23 03:00:11;;;;;;;12.48;8.45;;;;;;;;;;4929701;28;100383;-77
2023/07/23 03:02:38;;;;;;;12.93;8.30;;;;;;;;;;4929790;28;98285;-79
2023/07/23 03:05:05;;;;;;;11.70;7.45;;;;;;;;;;4926900;28;101163;-79
2023/07/23 03:07:32;;;;;;;9.88;6.95;;;;;;;;;;4875100;28;1151260;-78
2023/07/23 03:09:58;;;;;;;11.15;7.78;;;;;;;;;;4929903;28;98283;-77
2023/07/23 03:12:25;;;;;;;12.38;7.40;;;;;;;;;;4934129;28;98505;-78
2023/07/23 03:14:52;;;;;;;8.43;7.57;;;;;;;;;;4931348;28;98264;-77
2023/07/23 03:17:18;;;;;;;10.23;6.95;;;;;;;;;;4931160;28;98705;-78
2023/07/23 03:19:45;;;;;;;11.73;7.65;;;;;;;;;;4930648;28;101599;-78
2023/07/23 03:22:11;;;;;;;8.52;7.55;;;;;;;;;;4931879;28;98412;-79
2023/07/23 03:24:38;;;;;;;15.00;8.50;;;;;;;;;;4931239;28;98419;-78
2023/07/23 03:27:05;;;;;;;9.85;6.72;;;;;;;;;;4930684;28;100232;-78
2023/07/23 03:29:31;;;;;;;13.25;7.95;;;;;;;;;;4930265;28;99851;-77
2023/07/23 03:31:57;;;;;;;8.77;6.75;;;;;;;;;;4929884;28;100290;-78
2023/07/23 03:34:24;;;;;;;12.30;7.55;;;;;;;;;;4933311;28;100341;-79
2023/07/23 03:36:51;;;;;;;11.02;7.25;;;;;;;;;;4929552;28;101474;-77
2023/07/23 03:39:18;;;;;;;10.30;7.93;;;;;;;;;;4929095;28;100732;-79
2023/07/23 03:41:45;;;;;;;12.38;7.43;;;;;;;;;;4929951;28;98249;-77
2023/07/23 03:44:12;;;;;;;11.70;7.32;;;;;;;;;;4947850;28;98998;-78
2023/07/23 03:46:45;;;;;;;8.10;7.32;;;;;;;;;;4930632;28;100449;-79
2023/07/23 03:49:12;;;;;;;7.80;7.07;;;;;;;;;;4931143;28;97991;-79
2023/07/23 03:51:38;;;;;;;11.65;7.65;;;;;;;;;;4930632;28;98557;-77
2023/07/23 03:54:05;;;;;;;12.73;7.63;;;;;;;;;;4930549;28;98668;-78
2023/07/23 03:56:31;;;;;;;10.55;8.23;;;;;;;;;;4934599;28;98249;-78
2023/07/23 03:58:58;;;;;;;11.77;7.43;;;;;;;;;;4942131;28;100872;-77
2023/07/23 04:01:24;;;;;;;8.48;7.50;;;;;;;;;;4944389;28;98170;-79
2023/07/23 04:03:51;;;;;;;12.95;7.80;;;;;;;;;;4938425;28;100794;-78
2023/07/23 04:06:17;;;;;;;8.48;6.88;;;;;;;;;;4929600;28;99945;-77
2023/07/23 04:08:44;;;;;;;8.48;7.65;;;;;;;;;;4930101;28;98318;-79
2023/07/23 04:11:10;;;;;;;10.45;7.20;;;;;;;;;;4929633;28;100373;-78
2023/07/23 04:13:37;;;;;;;8.25;7.05;;;;;;;;;;4930235;28;98919;-78
2023/07/23 04:16:07;;;;;;;8.23;7.20;;;;;;;;;;4949923;28;98609;-78
2023/07/23 04:18:47;;;;;;;11.82;8.27;;;;;;;;;;4930797;28;98957;-79
2023/07/23 04:21:14;;;;;;;9.13;7.78;;;;;;;;;;4930079;28;98195;-79
2023/07/23 04:23:46;;;;;;;9.32;7.07;;;;;;;;;;4931068;28;98299;-79
2023/07/23 04:26:13;;;;;;;9.77;7.05;;;;;;;;;;4929961;28;98874;-79
2023/07/23 04:28:39;;;;;;;12.70;7.40;;;;;;;;;;4929595;28;98422;-78
2023/07/23 04:31:06;;;;;;;8.13;7.25;;;;;;;;;;4930798;28;99679;-78
2023/07/23 04:33:33;;;;;;;8.40;7.32;;;;;;;;;;4930939;28;99016;-79
2023/07/23 04:36:00;;;;;;;8.65;7.30;;;;;;;;;;4930251;28;99257;-79
2023/07/23 04:38:26;;;;;;;11.63;6.85;;;;;;;;;;4933348;28;98244;-80
2023/07/23 04:40:53;;;;;;;7.13;5.93;;;;;;;;;;4930791;28;98288;-79
2023/07/23 04:43:19;;;;;;;7.88;6.13;;;;;;;;;;4944237;28;100592;-80
2023/07/23 04:45:46;;;;;;;7.60;6.47;;;;;;;;;;4931067;28;99479;-78
2023/07/23 04:48:14;;;;;;;9.00;5.90;;;;;;;;;;4930638;28;98349;-79
2023/07/23 04:50:40;;;;;;;8.98;5.68;;;;;;;;;;4930626;28;98634;-78
2023/07/23 04:53:08;;;;;;;16.20;6.63;;;;;;;;;;4929512;28;99987;-79
2023/07/23 04:55:35;;;;;;;6.88;5.80;;;;;;;;;;4929975;28;98226;-79
2023/07/23 04:58:02;;;;;;;9.38;5.97;;;;;;;;;;4929844;28;99410;-80
2023/07/23 05:00:29;;;;;;;7.22;5.53;;;;;;;;;;4933258;28;99943;-78
2023/07/23 05:02:55;;;;;;;6.20;5.53;;;;;;;;;;4929504;28;99362;-80
2023/07/23 05:05:22;;;;;;;8.45;5.90;;;;;;;;;;4929954;28;99964;-78
2023/07/23 05:07:48;;;;;;;6.38;5.78;;;;;;;;;;4923053;28;100578;-79
2023/07/23 05:10:14;;;;;;;11.00;6.57;;;;;;;;;;4909887;28;99680;-79
2023/07/23 05:12:41;;;;;;;5.80;5.25;;;;;;;;;;4912077;28;99917;-79
2023/07/23 05:15:12;;;;;;;15.65;5.60;;;;;;;;;;4911627;28;98258;-79
2023/07/23 05:17:40;;;;;;;12.95;5.70;;;;;;;;;;4909616;28;98526;-78
2023/07/23 05:20:07;;;;;;;5.32;4.93;;;;;;;;;;4910504;28;100046;-78
2023/07/23 05:22:36;;;;;;;6.53;5.18;;;;;;;;;;4914195;28;98254;-80
2023/07/23 05:25:03;;;;;;;9.82;5.22;;;;;;;;;;4920676;28;100252;-79
2023/07/23 05:27:29;;;;;;;7.65;5.47;;;;;;;;;;4929840;28;98245;-78
2023/07/23 05:29:56;;;;;;;11.07;5.88;;;;;;;;;;4930560;28;99270;-79
2023/07/23 05:32:22;;;;;;;10.25;5.32;;;;;;;;;;4928996;28;100083;-79
2023/07/23 05:34:49;;;;;;;7.47;5.70;;;;;;;;;;4930532;28;98262;-78
2023/07/23 05:37:16;;;;;;;6.35;5.03;;;;;;;;;;4929182;28;98595;-78
2023/07/23 05:39:42;;;;;;;8.73;5.50;;;;;;;;;;4928938;28;99837;-79
2023/07/23 05:42:08;;;;;;;5.75;4.50;;;;;;;;;;4930413;28;98223;-78
2023/07/23 05:44:35;;;;;;;6.25;5.00;;;;;;;;;;4932888;28;99557;-78
2023/07/23 05:47:01;;;;;;;5.60;5.10;;;;;;;;;;4929273;28;98464;-78
2023/07/23 05:49:28;;;;;;;10.52;5.30;;;;;;;;;;4929699;28;98400;-78
2023/07/23 05:51:57;;;;;;;5.38;4.88;;;;;;;;;;4929703;28;99063;-78
2023/07/23 05:54:24;;;;;;;8.60;5.75;;;;;;;;;;4929623;28;98284;-78
2023/07/23 05:56:51;;;;;;;12.32;4.68;;;;;;;;;;4929929;28;99584;-77
2023/07/23 05:59:17;;;;;;;6.60;4.40;;;;;;;;;;4929188;28;99144;-78
2023/07/23 06:01:44;;;;;;;10.90;4.90;;;;;;;;;;4933179;28;98205;-79
2023/07/23 06:04:10;;;;;;;7.32;4.93;;;;;;;;;;4932531;28;98458;-78
2023/07/23 06:06:37;;;;;;;6.15;4.90;;;;;;;;;;4934767;28;99056;-79
2023/07/23 06:09:06;;;;;;;10.77;5.25;;;;;;;;;;4931978;28;99518;-77
2023/07/23 06:11:32;;;;;;;7.22;5.03;;;;;;;;;;4932359;28;98908;-78
2023/07/23 06:14:02;;;;;;;8.70;4.43;;;;;;;;;;4932268;28;98093;-78
2023/07/23 06:16:30;;;;;;;6.95;5.05;;;;;;;;;;4945970;28;99374;-77
2023/07/23 06:18:57;;;;;;;7.80;5.40;;;;;;;;;;4952689;28;99098;-77
2023/07/23 06:21:23;;;;;;;9.55;4.95;;;;;;;;;;4950986;28;98228;-77
2023/07/23 06:23:51;;;;;;;8.60;4.63;;;;;;;;;;4952939;28;98816;-77
2023/07/23 06:26:17;;;;;;;7.00;5.00;;;;;;;;;;4954995;28;100021;-76
2023/07/23 06:28:44;;;;;;;6.82;5.03;;;;;;;;;;4951417;28;99755;-77
2023/07/23 06:31:10;;;;;;;7.68;5.13;;;;;;;;;;4951103;28;97983;-77
2023/07/23 06:33:37;;;;;;;7.43;5.15;;;;;;;;;;4951237;28;98249;-78
2023/07/23 06:36:03;;;;;;;5.75;5.25;;;;;;;;;;4949740;28;98694;-78
2023/07/23 06:38:30;;;;;;;7.95;5.30;;;;;;;;;;4931598;28;99292;-78
2023/07/23 06:40:56;;;;;;;5.53;4.80;;;;;;;;;;4931286;28;98330;-77
2023/07/23 06:43:23;;;;;;;4.97;4.50;;;;;;;;;;4931693;28;98553;-79
2023/07/23 06:45:50;;;;;;;7.78;5.50;;;;;;;;;;4931856;28;99136;-77
2023/07/23 06:48:23;;;;;;;10.77;5.38;;;;;;;;;;4934791;28;98299;-78
2023/07/23 06:50:49;;;;;;;9.07;4.97;;;;;;;;;;4948228;28;99313;-78
2023/07/23 06:53:16;;;;;;;5.93;5.32;;;;;;;;;;4951257;28;98312;-77
2023/07/23 06:56:02;;;;;;;9.48;6.10;;;;;;;;;;4950447;28;99380;-76
2023/07/23 06:58:29;;;;;;;5.50;4.88;;;;;;;;;;4951379;28;99938;-78
2023/07/23 07:00:55;;;;;;;5.68;4.60;;;;;;;;;;4952344;28;98267;-74
2023/07/23 07:03:22;;;;;;;8.65;5.13;;;;;;;;;;4936185;28;100132;-75
2023/07/23 07:05:49;;;;;;;9.75;5.65;;;;;;;;;;4931699;28;100322;-80
2023/07/23 07:08:16;;;;;;;7.82;5.00;;;;;;;;;;4926650;28;98898;-79
2023/07/23 07:10:42;;;;;;;10.35;5.55;;;;;;;;;;4914547;28;98903;-79
2023/07/23 07:13:10;;;;;;;11.77;4.90;;;;;;;;;;4911997;28;98237;-79
2023/07/23 07:15:41;;;;;;;6.60;5.10;;;;;;;;;;4912428;28;98856;-78
2023/07/23 07:18:08;;;;;;;6.72;4.47;;;;;;;;;;4917846;28;99002;-77
2023/07/23 07:20:35;;;;;;;7.93;4.80;;;;;;;;;;4927829;28;98267;-78
2023/07/23 07:23:01;;;;;;;12.10;4.90;;;;;;;;;;4928887;28;99405;-78
2023/07/23 07:25:28;;;;;;;9.27;5.25;;;;;;;;;;4922705;28;98958;-79
2023/07/23 07:27:54;;;;;;;7.95;5.03;;;;;;;;;;4930773;28;98638;-80
2023/07/23 07:30:21;;;;;;;6.45;5.20;;;;;;;;;;4922775;28;99384;-78
2023/07/23 07:32:47;;;;;;;11.82;4.65;;;;;;;;;;4915538;28;99921;-78
2023/07/23 07:35:14;;;;;;;11.90;5.47;;;;;;;;;;4926018;28;98527;-80
2023/07/23 07:37:40;;;;;;;4.88;4.35;;;;;;;;;;4922278;28;99124;-78
2023/07/23 07:40:09;;;;;;;5.00;4.55;;;;;;;;;;4912448;28;98227;-80
2023/07/23 07:42:35;;;;;;;6.47;4.68;;;;;;;;;;4916632;28;99825;-80
2023/07/23 07:45:02;;;;;;;7.80;4.30;;;;;;;;;;4929057;28;99012;-79
2023/07/23 07:47:28;;;;;;;10.48;4.80;;;;;;;;;;4929722;28;98279;-78
2023/07/23 07:49:55;;;;;;;4.95;4.45;;;;;;;;;;4927050;28;100599;-80
2023/07/23 07:52:21;;;;;;;5.22;4.40;;;;;;;;;;4925065;28;98963;-80
2023/07/23 07:54:48;;;;;;;5.50;4.22;;;;;;;;;;4931099;28;98280;-80
2023/07/23 07:57:14;;;;;;;8.05;4.72;;;;;;;;;;4928418;28;99945;-78
2023/07/23 07:59:42;;;;;;;4.97;4.47;;;;;;;;;;4930619;28;98893;-80
2023/07/23 08:02:08;;;;;;;8.65;4.32;;;;;;;;;;4931627;28;98706;-78
2023/07/23 08:04:35;;;;;;;5.50;4.20;;;;;;;;;;4930056;28;99927;-79
2023/07/23 08:07:02;;;;;;;8.88;4.45;;;;;;;;;;4928889;28;98239;-79
2023/07/23 08:09:29;;;;;;;5.95;4.40;;;;;;;;;;4936414;28;99472;-79
2023/07/23 08:11:56;;;;;;;4.63;4.22;;;;;;;;;;4945196;28;99946;-77
2023/07/23 08:14:23;;;;;;;5.05;3.95;;;;;;;;;;4941946;28;98237;-79
2023/07/23 08:16:53;;;;;;;4.32;3.70;;;;;;;;;;4934522;28;98499;-79
2023/07/23 08:19:20;;;;;;;5.15;3.97;;;;;;;;;;4929350;28;98216;-77
2023/07/23 08:21:47;;;;;;;4.57;4.10;;;;;;;;;;4921500;28;98604;-77
2023/07/23 08:24:13;;;;;;;7.57;3.60;;;;;;;;;;4925177;28;100331;-79
2023/07/23 08:26:41;;;;;;;7.95;4.22;;;;;;;;;;4930438;28;98211;-78
2023/07/23 08:29:08;;;;;;;4.32;3.92;;;;;;;;;;4929391;28;99353;-78
2023/07/23 08:31:36;;;;;;;5.30;4.13;;;;;;;;;;4931034;28;100057;-78
2023/07/23 08:34:03;;;;;;;4.22;3.55;;;;;;;;;;4929235;28;98501;-78
2023/07/23 08:36:30;;;;;;;3.70;3.40;;;;;;;;;;4933108;28;99500;-78
2023/07/23 08:38:57;;;;;;;4.88;3.72;;;;;;;;;;4916724;28;98270;-79
2023/07/23 08:41:35;;;;;;;4.13;3.55;;;;;;;;;;4928002;28;99469;-80
2023/07/23 08:44:15;;;;;;;6.57;3.47;;;;;;;;;;4930206;28;99892;-78
2023/07/23 08:46:45;;;;;;;4.20;3.60;;;;;;;;;;4912095;28;98198;-79
2023/07/23 08:49:14;;;;;;;7.55;4.25;;;;;;;;;;4922113;28;99352;-79
2023/07/23 08:51:49;;;;;;;4.47;4.07;;;;;;;;;;4929427;28;100208;-78
2023/07/23 08:54:16;;;;;;;7.60;3.90;;;;;;;;;;4929331;28;99518;-78
2023/07/23 08:56:43;;;;;;;4.25;3.88;;;;;;;;;;4929572;28;100122;-78
2023/07/23 08:59:11;;;;;;;4.38;3.90;;;;;;;;;;4933190;28;98979;-77
2023/07/23 09:01:39;;;;;;;4.47;3.83;;;;;;;;;;4930243;28;99592;-79
2023/07/23 09:04:06;;;;;;;9.40;4.05;;;;;;;;;;4929187;28;100134;-78
2023/07/23 09:06:33;;;;;;;4.78;3.88;;;;;;;;;;4930177;28;98194;-79
2023/07/23 09:09:09;;;;;;;4.95;3.83;;;;;;;;;;4925283;28;98683;-79
2023/07/23 09:11:36;;;;;;;4.45;4.15;;;;;;;;;;4910546;28;100165;-78
2023/07/23 09:14:06;;;;;;;4.55;4.15;;;;;;;;;;4916021;28;98512;-78
2023/07/23 09:16:37;;;;;;;6.03;3.72;;;;;;;;;;4927874;28;99107;-79
2023/07/23 09:19:04;;;;;;;5.35;4.05;;;;;;;;;;4930121;28;99915;-77
2023/07/23 09:21:30;;;;;;;4.25;3.60;;;;;;;;;;4932904;28;98236;-78
2023/07/23 09:23:57;;;;;;;4.68;4.20;;;;;;;;;;4931723;28;98976;-79
2023/07/23 09:26:27;;;;;;;4.13;3.72;;;;;;;;;;4930061;28;98267;-79
2023/07/23 09:28:59;;;;;;;3.87;3.60;;;;;;;;;;4930370;28;99418;-78
2023/07/23 09:31:28;;;;;;;4.68;4.28;;;;;;;;;;4929140;28;99931;-77
2023/07/23 09:34:02;;;;;;;5.00;4.00;;;;;;;;;;4929703;28;98051;-77
2023/07/23 09:36:29;;;;;;;7.63;4.10;;;;;;;;;;4932457;28;99416;-76
2023/07/23 09:38:56;;;;;;;5.63;3.97;;;;;;;;;;4932885;28;99069;-78
2023/07/23 09:41:25;;;;;;;5.60;3.88;;;;;;;;;;4927251;28;98212;-77
2023/07/23 09:43:52;;;;;;;4.70;3.70;;;;;;;;;;4922956;28;98884;-78
2023/07/23 09:46:19;;;;;;;4.05;3.75;;;;;;;;;;4916374;28;98546;-77
2023/07/23 09:48:48;;;;;;;4.07;3.67;;;;;;;;;;4931572;28;99535;-77
2023/07/23 09:51:15;;;;;;;4.13;3.72;;;;;;;;;;4925868;28;100046;-78
2023/07/23 09:53:45;;;;;;;3.85;3.55;;;;;;;;;;4914466;28;98372;-77
2023/07/23 09:56:13;;;;;;;4.10;3.80;;;;;;;;;;4920090;28;99609;-79
2023/07/23 09:58:41;;;;;;;5.07;4.28;;;;;;;;;;4939987;28;100324;-78
2023/07/23 10:01:07;;;;;;;5.20;3.92;;;;;;;;;;4928354;28;98664;-78
2023/07/23 10:03:34;;;;;;;10.75;4.95;;;;;;;;;;4930857;28;99406;-80
2023/07/23 10:06:01;;;;;;;6.32;4.72;;;;;;;;;;4916707;28;100363;-78
2023/07/23 10:08:28;;;;;;;6.38;3.70;;;;;;;;;;4921365;28;99519;-78
2023/07/23 10:10:54;;;;;;;5.10;4.70;;;;;;;;;;4929615;28;99945;-80
2023/07/23 10:13:21;;;;;;;3.97;3.67;;;;;;;;;;4928693;28;98327;-79
2023/07/23 10:15:49;;;;;;;5.32;3.70;;;;;;;;;;4929231;28;99741;-79
2023/07/23 10:18:17;;;;;;;4.53;3.17;;;;;;;;;;4932738;28;99013;-78
2023/07/23 10:20:44;;;;;;;4.32;3.50;;;;;;;;;;4928271;28;99664;-77
2023/07/23 10:23:11;;;;;;;3.72;3.42;;;;;;;;;;4926399;28;98756;-77
2023/07/23 10:25:37;;;;;;;3.70;3.40;;;;;;;;;;4931678;28;99097;-78
2023/07/23 10:28:19;;;;;;;3.50;3.17;;;;;;;;;;4928798;28;98286;-77
2023/07/23 10:30:46;;;;;;;3.20;3.00;;;;;;;;;;4917880;28;100124;-79
2023/07/23 10:33:12;;;;;;;3.35;3.15;;;;;;;;;;4928837;28;98572;-78
2023/07/23 10:36:04;;;;;;;3.67;3.35;;;;;;;;;;4930557;28;98734;-78
2023/07/23 10:38:32;;;;;;;3.10;2.90;;;;;;;;;;4918579;28;100328;-79
2023/07/23 10:40:59;;;;;;;2.80;2.60;;;;;;;;;;4931642;28;98020;-79
2023/07/23 10:43:39;;;;;;;2.70;2.58;;;;;;;;;;4926519;28;100295;-77
2023/07/23 10:46:07;;;;;;;3.35;3.03;;;;;;;;;;4921154;28;99865;-78
2023/07/23 10:48:37;;;;;;;3.30;3.10;;;;;;;;;;4929550;28;98421;-78
2023/07/23 10:51:06;;;;;;;4.35;2.60;;;;;;;;;;4932005;28;100281;-78
2023/07/23 10:53:32;;;;;;;3.22;2.95;;;;;;;;;;4932287;28;98232;-78
2023/07/23 10:55:59;;;;;;;3.75;3.40;;;;;;;;;;4931969;28;98604;-78
2023/07/23 10:58:27;;;;;;;3.40;3.20;;;;;;;;;;4925691;28;99949;-79
2023/07/23 11:00:54;;;;;;;3.20;3.00;;;;;;;;;;4928186;28;98100;-80
2023/07/23 11:03:21;;;;;;;3.00;2.80;;;;;;;;;;4927584;28;99723;-78
2023/07/23 11:05:49;;;;;;;3.78;3.47;;;;;;;;;;4930251;28;100142;-78
2023/07/23 11:08:27;;;;;;;3.72;3.42;;;;;;;;;;4931195;28;98204;-78
2023/07/23 11:10:59;;;;;;;3.83;3.50;;;;;;;;;;4927577;28;99231;-77
2023/07/23 11:13:38;;;;;;;3.97;3.67;;;;;;;;;;4925977;28;98246;-77
2023/07/23 11:16:06;;;;;;;3.80;3.28;;;;;;;;;;4931726;28;98985;-77
2023/07/23 11:18:39;;;;;;;3.83;3.53;;;;;;;;;;4928487;28;100125;-76
2023/07/23 11:21:11;;;;;;;4.50;3.83;;;;;;;;;;4912576;28;98080;-76
2023/07/23 11:23:37;;;;;;;4.37;4.00;;;;;;;;;;4912473;28;99628;-77
2023/07/23 11:26:04;;;;;;;4.10;3.80;;;;;;;;;;4927564;28;98872;-77
2023/07/23 11:28:32;;;;;;;4.38;3.83;;;;;;;;;;4930889;28;98322;-77
2023/07/23 11:30:59;;;;;;;3.78;3.58;;;;;;;;;;4932736;28;98518;-81
2023/07/23 11:33:33;;;;;;;4.35;3.95;;;;;;;;;;4937217;28;100260;-77
2023/07/23 11:36:00;;;;;;;5.10;3.70;;;;;;;;;;4933376;28;99694;-76
2023/07/23 11:38:30;;;;;;;4.25;3.88;;;;;;;;;;4912445;28;100262;-77
2023/07/23 11:40:58;;;;;;;8.18;4.68;;;;;;;;;;4932701;28;98309;-77
2023/07/23 11:43:27;;;;;;;4.28;3.97;;;;;;;;;;4932585;28;99149;-76
2023/07/23 11:45:53;;;;;;;4.20;3.85;;;;;;;;;;4933155;28;100010;-77
2023/07/23 11:48:21;;;;;;;4.63;3.83;;;;;;;;;;4933109;28;97947;-76
2023/07/23 11:50:49;;;;;;;3.80;3.50;;;;;;;;;;4932241;28;99618;-77
2023/07/23 11:53:35;;;;;;;4.68;3.80;;;;;;;;;;4931522;28;100108;-77
2023/07/23 11:56:09;;;;;;;4.38;3.88;;;;;;;;;;4936283;28;98242;-76
2023/07/23 11:58:36;;;;;;;3.95;3.65;;;;;;;;;;4931110;28;99943;-76
2023/07/23 12:01:06;;;;;;;4.07;3.78;;;;;;;;;;4933248;28;98216;-77
2023/07/23 12:03:37;;;;;;;4.45;4.05;;;;;;;;;;4932284;28;98955;-77
2023/07/23 12:06:04;;;;;;;4.38;4.07;;;;;;;;;;4931371;28;99509;-77
2023/07/23 12:08:32;;;;;;;4.40;4.10;;;;;;;;;;4931490;28;98360;-76
2023/07/23 12:11:11;;;;;;;4.65;3.58;;;;;;;;;;4930909;28;99455;-75
2023/07/23 12:13:45;;;;;;;8.05;3.67;;;;;;;;;;4912531;28;100241;-75
2023/07/23 12:16:32;;;;;;;3.63;3.42;;;;;;;;;;4913421;28;98531;-76
2023/07/23 12:19:03;;;;;;;4.70;4.30;;;;;;;;;;4916083;28;99671;-77
2023/07/23 12:21:34;;;;;;;5.45;3.85;;;;;;;;;;4916433;28;98427;-76
2023/07/23 12:24:31;;;;;;;3.53;3.23;;;;;;;;;;4922222;28;99535;-78
2023/07/23 12:27:01;;;;;;;4.05;3.75;;;;;;;;;;4913317;28;99574;-77
2023/07/23 12:29:29;;;;;;;3.78;3.47;;;;;;;;;;4912285;28;98218;-74
2023/07/23 12:32:11;;;;;;;8.75;4.05;;;;;;;;;;4912615;28;98592;-76
2023/07/23 12:34:41;;;;;;;4.50;4.10;;;;;;;;;;4911611;28;99937;-76
2023/07/23 12:37:10;;;;;;;3.65;3.45;;;;;;;;;;4911417;28;98327;-76
2023/07/23 12:39:42;;;;;;;3.95;3.67;;;;;;;;;;4923417;28;99733;-78
2023/07/23 12:42:16;;;;;;;5.50;3.38;;;;;;;;;;4934092;28;98049;-76
2023/07/23 12:44:43;;;;;;;3.67;3.47;;;;;;;;;;4932018;28;98979;-76
2023/07/23 12:47:12;;;;;;;6.05;3.90;;;;;;;;;;4931149;28;99912;-76
2023/07/23 12:49:42;;;;;;;4.20;3.38;;;;;;;;;;4930403;28;98017;-77
2023/07/23 12:52:08;;;;;;;4.70;3.78;;;;;;;;;;4930404;28;99660;-77
2023/07/23 12:54:35;;;;;;;3.95;3.65;;;;;;;;;;4929060;28;100103;-76
2023/07/23 12:57:02;;;;;;;3.17;2.90;;;;;;;;;;4930394;28;98885;-77
2023/07/23 12:59:28;;;;;;;3.25;3.05;;;;;;;;;;4926023;28;98523;-77
2023/07/23 13:01:55;;;;;;;3.70;2.70;;;;;;;;;;4913892;28;98933;-78
2023/07/23 13:04:21;;;;;;;3.65;3.30;;;;;;;;;;4911190;28;98543;-75
2023/07/23 13:06:48;;;;;;;3.33;3.13;;;;;;;;;;4922522;28;100116;-78
2023/07/23 13:09:16;;;;;;;6.18;3.20;;;;;;;;;;4930326;28;98156;-77
2023/07/23 13:11:43;;;;;;;3.17;2.85;;;;;;;;;;4927645;28;98282;-77
2023/07/23 13:14:09;;;;;;;3.80;3.50;;;;;;;;;;4926352;28;99058;-77
2023/07/23 13:16:36;;;;;;;3.70;3.40;;;;;;;;;;4933527;28;98256;-76
2023/07/23 13:19:03;;;;;;;3.10;3.00;;;;;;;;;;4916965;28;99516;-77
2023/07/23 13:21:29;;;;;;;3.92;3.63;;;;;;;;;;4913799;28;99864;-77
2023/07/23 13:23:56;;;;;;;3.38;3.08;;;;;;;;;;4916941;28;99709;-77
2023/07/23 13:26:22;;;;;;;3.45;3.25;;;;;;;;;;4914131;28;99046;-77
2023/07/23 13:28:49;;;;;;;4.00;3.70;;;;;;;;;;4914431;28;98237;-77
2023/07/23 13:31:18;;;;;;;3.85;3.45;;;;;;;;;;4913054;28;99439;-77
2023/07/23 13:33:45;;;;;;;3.58;3.28;;;;;;;;;;4913065;28;99005;-76
2023/07/23 13:36:11;;;;;;;3.60;3.30;;;;;;;;;;4912900;28;98015;-77
2023/07/23 13:38:38;;;;;;;3.28;3.08;;;;;;;;;;4916231;28;100004;-77
2023/07/23 13:41:04;;;;;;;3.05;2.85;;;;;;;;;;4933022;28;98918;-77
2023/07/23 13:43:31;;;;;;;3.08;2.83;;;;;;;;;;4932461;28;98775;-77
2023/07/23 13:45:57;;;;;;;6.88;3.42;;;;;;;;;;4936248;28;99389;-77
2023/07/23 13:48:24;;;;;;;2.78;2.58;;;;;;;;;;4933073;28;98318;-77
2023/07/23 13:50:50;;;;;;;3.28;2.55;;;;;;;;;;4933036;28;98535;-77
2023/07/23 13:53:18;;;;;;;6.97;3.20;;;;;;;;;;4932572;28;99991;-77
2023/07/23 13:55:44;;;;;;;3.92;2.72;;;;;;;;;;4933166;28;98044;-77
2023/07/23 13:58:11;;;;;;;3.35;3.05;;;;;;;;;;4932038;28;98677;-77
2023/07/23 14:00:37;;;;;;;3.70;2.45;;;;;;;;;;4932691;28;99879;-76
2023/07/23 14:03:06;;;;;;;3.17;2.80;;;;;;;;;;4933339;28;98316;-77
2023/07/23 14:05:33;;;;;;;4.95;2.55;;;;;;;;;;4932362;28;98693;-76
2023/07/23 14:07:59;;;;;;;4.07;2.78;;;;;;;;;;4935541;28;99842;-78
2023/07/23 14:10:26;;;;;;;6.10;2.40;;;;;;;;;;4932843;28;99626;-77
2023/07/23 14:12:52;;;;;;;4.35;3.00;;;;;;;;;;4932095;28;99899;-79
2023/07/23 14:15:19;;;;;;;2.63;2.47;;;;;;;;;;4932708;28;99597;-78
2023/07/23 14:17:45;;;;;;;14.80;3.00;;;;;;;;;;4932952;28;98649;-78
2023/07/23 14:20:12;;;;;;;5.38;2.70;;;;;;;;;;4931010;28;100213;-76
2023/07/23 14:22:38;;;;;;;2.95;2.50;;;;;;;;;;4931659;28;98184;-76
2023/07/23 14:25:05;;;;;;;3.53;2.97;;;;;;;;;;4932830;28;99453;-76
2023/07/23 14:27:31;;;;;;;3.90;2.65;;;;;;;;;;4931672;28;99061;-78
2023/07/23 14:29:58;;;;;;;4.45;2.45;;;;;;;;;;4936184;28;98196;-78
2023/07/23 14:32:25;;;;;;;2.13;2.03;;;;;;;;;;4932027;28;100336;-77
2023/07/23 14:34:51;;;;;;;2.28;2.13;;;;;;;;;;4932250;28;98262;-78
2023/07/23 14:37:18;;;;;;;2.22;2.05;;;;;;;;;;4932240;28;99465;-78
2023/07/23 14:39:44;;;;;;;6.45;2.10;;;;;;;;;;4931389;28;98957;-78
2023/07/23 14:42:11;;;;;;;7.57;2.53;;;;;;;;;;4932246;28;98238;-77